Funafuti, Tuvalu
Current Conditions -  °F | °C
As of 5:00 PM on Thursday 29 Jan 2015 (Local Time) from NGFU Reporting Station
Rain Showers Rain Showers  
Wind Chill: 84°   Ceiling: 10000
Heat Index: 96°   Visibility: 6mi
Dew Point: 79°   Wind: 17mph
Humidity: 84%   Direction: 280°W
Pressure: 29.59"   Gusts: NA
Location:  8.52°S, 179.19°E
Report Text: NGFU 290500Z 28015KT 9999 VCSH SCT018CB OVC100 29/26 Q1002
Loading
Personal Weather Stations






























Interactive Weather Map New forecast layout! Learn more

10-Day Weather Forecast

Advertisements
Track Severe Weather on mobile